Time;durP1;ratioP1;P1;durP2;ratioP2;P2;SDS_P1;SDS_P2;PMS_P1;PMS_P2;Temp;Humidity;BMP_temperature;BMP_pressure;BME280_temperature;BME280_humidity;BME280_pressure;Samples;Min_cycle;Max_cycle;Signal;HPM_P1;HPM_P2
2023/06/01 00:00:32;;;;;;;5.30;4.00;;;18.20;84.40;;;;;;5116953;28;20235;-70
2023/06/01 00:02:58;;;;;;;6.07;4.23;;;18.20;84.50;;;;;;5116789;28;20156;-71
2023/06/01 00:05:23;;;;;;;4.40;3.73;;;18.00;84.60;;;;;;5116689;28;20603;-71
2023/06/01 00:07:49;;;;;;;7.27;3.70;;;18.00;85.50;;;;;;5116754;28;20176;-71
2023/06/01 00:10:15;;;;;;;5.00;3.93;;;17.90;85.80;;;;;;5098466;28;20192;-71
2023/06/01 00:12:40;;;;;;;5.20;3.87;;;17.70;86.00;;;;;;5117232;28;20168;-71
2023/06/01 00:15:06;;;;;;;5.83;4.27;;;17.90;86.30;;;;;;5115969;28;20204;-71
2023/06/01 00:17:32;;;;;;;4.73;3.57;;;17.80;85.70;;;;;;5116671;28;20180;-70
2023/06/01 00:20:00;;;;;;;4.53;3.90;;;17.90;85.80;;;;;;5116445;28;20441;-71
2023/06/01 00:22:33;;;;;;;6.10;3.77;;;18.00;85.90;;;;;;5116417;28;20164;-71
2023/06/01 00:25:00;;;;;;;6.33;3.90;;;18.10;86.10;;;;;;5116402;28;20410;-71
2023/06/01 00:27:25;;;;;;;5.00;3.70;;;18.00;85.70;;;;;;5098267;28;20430;-70
2023/06/01 00:29:51;;;;;;;4.97;3.80;;;18.00;86.90;;;;;;5098273;28;20453;-71
2023/06/01 00:32:16;;;;;;;10.93;4.40;;;18.00;86.90;;;;;;5117214;28;20172;-71
2023/06/01 00:34:42;;;;;;;6.17;3.23;;;17.90;87.20;;;;;;5116344;28;20184;-71
2023/06/01 00:37:07;;;;;;;5.13;4.50;;;17.90;87.00;;;;;;5116446;28;20168;-71
2023/06/01 00:39:33;;;;;;;6.87;4.13;;;17.70;87.20;;;;;;5116033;28;20195;-71
2023/06/01 00:41:59;;;;;;;10.13;4.07;;;17.60;87.60;;;;;;5115975;28;20168;-70
2023/06/01 00:44:24;;;;;;;4.73;4.33;;;17.50;88.90;;;;;;5097138;28;20191;-70
2023/06/01 00:46:50;;;;;;;5.60;3.67;;;17.50;89.20;;;;;;5116183;28;20553;-70
2023/06/01 00:49:16;;;;;;;5.17;3.40;;;17.50;89.00;;;;;;5115859;28;20161;-71
2023/06/01 00:51:41;;;;;;;4.40;3.90;;;17.50;89.30;;;;;;5116019;28;20414;-71
2023/06/01 00:54:07;;;;;;;6.53;3.63;;;17.50;89.20;;;;;;5115731;28;20207;-70
2023/06/01 00:56:35;;;;;;;6.73;3.90;;;17.30;89.50;;;;;;5115933;28;20157;-70
2023/06/01 00:59:01;;;;;;;5.00;3.97;;;17.10;90.30;;;;;;5114936;28;20406;-70
2023/06/01 01:01:26;;;;;;;4.27;3.43;;;17.10;90.60;;;;;;5114873;28;20401;-70
2023/06/01 01:03:57;;;;;;;5.47;4.30;;;17.10;90.60;;;;;;5116622;28;20156;-70
2023/06/01 01:06:56;;;;;;;5.03;3.80;;;17.10;90.80;;;;;;5115514;28;20181;-71
2023/06/01 01:09:49;;;;;;;5.33;4.03;;;17.10;91.00;;;;;;5115285;28;20414;-71
2023/06/01 01:12:24;;;;;;;4.37;3.77;;;17.10;91.30;;;;;;5107141;28;20407;-71
2023/06/01 01:15:04;;;;;;;4.43;3.90;;;17.00;91.60;;;;;;5114857;28;20812;-71
2023/06/01 01:17:33;;;;;;;7.00;4.60;;;17.10;91.70;;;;;;5115484;28;20398;-70
2023/06/01 01:20:08;;;;;;;5.50;4.60;;;17.10;91.50;;;;;;5115290;28;20430;-71
2023/06/01 01:23:05;;;;;;;4.00;3.53;;;17.00;91.90;;;;;;5096924;28;20425;-70
2023/06/01 01:25:40;;;;;;;3.90;3.60;;;16.90;92.10;;;;;;5115191;28;20418;-70
2023/06/01 01:28:32;;;;;;;4.07;3.67;;;16.90;92.30;;;;;;5114855;28;20825;-70
2023/06/01 01:31:01;;;;;;;7.27;3.90;;;16.90;92.20;;;;;;5115223;28;20913;-70
2023/06/01 01:33:28;;;;;;;6.73;4.47;;;16.80;92.20;;;;;;5115044;28;20436;-71
2023/06/01 01:35:55;;;;;;;4.97;4.47;;;16.70;92.80;;;;;;5114944;28;20999;-70
2023/06/01 01:38:20;;;;;;;4.63;3.87;;;16.60;93.00;;;;;;5114884;28;20899;-70
2023/06/01 01:40:46;;;;;;;4.63;3.93;;;16.60;93.10;;;;;;5114976;28;20441;-70
2023/06/01 01:43:12;;;;;;;4.93;3.97;;;16.60;93.20;;;;;;5096056;28;20171;-71
2023/06/01 01:45:38;;;;;;;4.10;3.60;;;16.50;93.30;;;;;;5114710;28;20210;-70
2023/06/01 01:48:11;;;;;;;4.30;3.90;;;16.40;93.70;;;;;;5096399;28;20175;-71
2023/06/01 01:50:44;;;;;;;5.70;3.87;;;16.40;93.70;;;;;;5114890;28;20395;-70
2023/06/01 01:53:11;;;;;;;7.17;4.00;;;16.40;93.70;;;;;;5114827;28;20752;-71
2023/06/01 01:55:37;;;;;;;7.50;4.23;;;16.40;93.90;;;;;;5114047;28;20487;-71
2023/06/01 01:58:03;;;;;;;4.67;3.67;;;16.40;93.90;;;;;;5111814;28;20869;-70
2023/06/01 02:00:30;;;;;;;4.33;3.93;;;16.50;94.30;;;;;;5093639;28;20446;-71
2023/06/01 02:02:56;;;;;;;5.90;3.93;;;16.50;94.20;;;;;;5094095;28;20681;-70
2023/06/01 02:05:21;;;;;;;4.57;3.77;;;16.40;94.20;;;;;;5094348;28;20420;-71
2023/06/01 02:07:47;;;;;;;4.43;4.03;;;16.30;94.60;;;;;;5093933;28;20535;-70
2023/06/01 02:10:12;;;;;;;4.10;3.33;;;16.20;94.90;;;;;;5093899;28;20543;-71
2023/06/01 02:12:38;;;;;;;4.00;3.20;;;16.30;95.20;;;;;;5075649;28;20279;-70
2023/06/01 02:15:05;;;;;;;5.03;4.30;;;16.20;95.30;;;;;;5075262;28;20212;-71
2023/06/01 02:17:32;;;;;;;5.23;3.40;;;16.10;95.30;;;;;;5094345;28;20172;-71
2023/06/01 02:19:58;;;;;;;6.63;4.10;;;16.20;95.70;;;;;;5093790;28;20435;-71
2023/06/01 02:22:24;;;;;;;4.30;3.63;;;16.10;95.90;;;;;;5093739;28;20901;-70
2023/06/01 02:24:49;;;;;;;4.40;4.00;;;16.20;95.90;;;;;;5093603;28;20256;-71
2023/06/01 02:27:15;;;;;;;5.00;3.80;;;16.30;95.80;;;;;;5093699;28;20223;-71
2023/06/01 02:29:41;;;;;;;4.77;3.77;;;16.20;95.80;;;;;;5093016;28;20183;-71
2023/06/01 02:32:07;;;;;;;4.13;3.73;;;16.30;95.70;;;;;;5075349;28;20176;-71
2023/06/01 02:34:32;;;;;;;6.60;3.57;;;16.20;96.10;;;;;;5093379;28;20484;-70
2023/06/01 02:36:58;;;;;;;5.80;3.60;;;16.20;95.90;;;;;;5093645;28;20178;-70
2023/06/01 02:39:24;;;;;;;4.57;3.97;;;16.10;96.20;;;;;;5097486;28;20180;-70
2023/06/01 02:41:50;;;;;;;7.07;4.67;;;16.10;96.20;;;;;;5113617;28;20748;-70
2023/06/01 02:44:15;;;;;;;4.40;3.80;;;16.10;96.20;;;;;;5113368;28;20164;-70
2023/06/01 02:46:41;;;;;;;4.67;3.77;;;16.00;96.30;;;;;;5113472;28;20250;-70
2023/06/01 02:49:07;;;;;;;4.50;3.43;;;15.90;96.90;;;;;;5113483;28;20163;-70
2023/06/01 02:51:32;;;;;;;5.27;3.70;;;15.80;97.10;;;;;;5113445;28;20153;-70
2023/06/01 02:53:59;;;;;;;11.03;4.30;;;15.80;97.10;;;;;;5113460;28;20167;-69
2023/06/01 02:56:25;;;;;;;4.10;3.50;;;15.70;97.30;;;;;;5113327;28;20195;-71
2023/06/01 02:58:50;;;;;;;5.43;3.90;;;15.70;97.60;;;;;;5112698;28;20409;-70
2023/06/01 03:01:16;;;;;;;6.77;4.20;;;15.80;97.60;;;;;;5113669;28;20441;-70
2023/06/01 03:03:41;;;;;;;6.30;4.30;;;15.90;97.70;;;;;;5113298;28;20175;-70
2023/06/01 03:06:08;;;;;;;6.10;3.70;;;15.90;97.40;;;;;;5113214;28;20178;-70
2023/06/01 03:08:34;;;;;;;6.37;3.63;;;15.90;97.60;;;;;;5113150;28;20167;-71
2023/06/01 03:11:00;;;;;;;4.90;3.50;;;15.80;97.70;;;;;;5113141;28;20405;-71
2023/06/01 03:13:25;;;;;;;6.53;4.20;;;15.70;97.90;;;;;;5113469;28;20459;-71
2023/06/01 03:15:51;;;;;;;4.80;4.00;;;15.70;98.10;;;;;;5113114;28;20258;-70
2023/06/01 03:18:17;;;;;;;4.43;3.20;;;15.60;98.10;;;;;;5113117;28;20172;-71
2023/06/01 03:20:42;;;;;;;6.17;4.40;;;15.70;98.50;;;;;;5094397;28;20194;-71
2023/06/01 03:23:08;;;;;;;7.80;4.03;;;15.80;98.60;;;;;;5112604;28;20436;-71
2023/06/01 03:25:34;;;;;;;5.60;4.17;;;15.70;98.40;;;;;;5112997;28;20194;-70
2023/06/01 03:28:00;;;;;;;4.67;3.70;;;15.60;98.60;;;;;;5113043;28;20530;-71
2023/06/01 03:30:25;;;;;;;4.93;3.27;;;15.60;98.90;;;;;;5112571;28;20437;-70
2023/06/01 03:32:51;;;;;;;5.70;4.07;;;15.60;99.20;;;;;;5113214;28;20169;-70
2023/06/01 03:35:17;;;;;;;5.37;3.73;;;15.50;99.10;;;;;;5094368;28;20245;-71
2023/06/01 03:37:44;;;;;;;3.73;3.33;;;15.50;99.40;;;;;;5112096;28;20664;-70
2023/06/01 03:40:10;;;;;;;5.33;3.53;;;15.50;99.50;;;;;;5113209;28;20198;-69
2023/06/01 03:42:41;;;;;;;7.00;4.00;;;15.60;99.40;;;;;;5112996;28;20400;-69
2023/06/01 03:45:08;;;;;;;6.93;4.30;;;15.70;99.20;;;;;;5094723;28;20892;-69
2023/06/01 03:47:33;;;;;;;5.33;3.93;;;15.70;99.30;;;;;;5112882;28;20402;-69
2023/06/01 03:50:00;;;;;;;4.40;3.43;;;15.80;99.50;;;;;;5113037;28;20788;-70
2023/06/01 03:52:26;;;;;;;3.83;3.53;;;15.80;99.30;;;;;;5113569;28;20575;-72
2023/06/01 03:54:52;;;;;;;5.60;4.23;;;15.60;99.70;;;;;;5115539;28;20470;-69
2023/06/01 03:57:17;;;;;;;5.40;3.73;;;15.60;99.90;;;;;;5116071;28;20232;-69
2023/06/01 03:59:43;;;;;;;4.33;3.60;;;15.50;99.90;;;;;;5114584;28;20191;-72
2023/06/01 04:02:09;;;;;;;4.00;3.50;;;15.50;99.90;;;;;;5114522;28;20537;-71
2023/06/01 04:04:35;;;;;;;4.43;3.40;;;15.60;99.90;;;;;;5114825;28;20252;-71
2023/06/01 04:07:03;;;;;;;5.70;3.47;;;15.50;99.90;;;;;;5094405;28;20925;-70
2023/06/01 04:09:31;;;;;;;11.00;4.10;;;15.60;99.90;;;;;;5112662;28;20443;-70
2023/06/01 04:11:56;;;;;;;7.07;4.30;;;15.60;99.90;;;;;;5111522;28;20465;-70
2023/06/01 04:14:22;;;;;;;5.33;3.87;;;15.60;99.90;;;;;;5112722;28;20539;-70
2023/06/01 04:16:48;;;;;;;6.27;3.90;;;15.70;99.90;;;;;;5112703;28;20171;-70
2023/06/01 04:19:13;;;;;;;9.03;4.37;;;15.80;99.90;;;;;;5094352;28;20227;-71
2023/06/01 04:21:39;;;;;;;4.13;3.70;;;15.80;99.90;;;;;;5113101;28;20176;-70
2023/06/01 04:24:04;;;;;;;4.23;3.83;;;15.90;99.90;;;;;;5113083;28;20176;-70
2023/06/01 04:26:31;;;;;;;6.20;4.30;;;16.00;99.90;;;;;;5112289;28;20646;-70
2023/06/01 04:28:58;;;;;;;8.20;4.70;;;16.00;99.90;;;;;;5112717;28;20546;-71
2023/06/01 04:31:24;;;;;;;7.00;5.70;;;16.00;99.90;;;;;;5112747;28;20485;-70
2023/06/01 04:33:52;;;;;;;8.07;5.00;;;15.90;99.90;;;;;;5112487;28;20493;-69
2023/06/01 04:36:22;;;;;;;5.23;4.60;;;15.90;99.90;;;;;;5115126;28;20292;-70
2023/06/01 04:38:53;;;;;;;5.97;4.97;;;16.10;99.90;;;;;;5116390;28;20413;-71
2023/06/01 04:41:21;;;;;;;5.07;4.50;;;16.10;99.90;;;;;;5116047;28;20457;-70
2023/06/01 04:43:51;;;;;;;7.83;4.60;;;16.00;99.90;;;;;;5115960;28;20404;-70
2023/06/01 04:46:23;;;;;;;5.37;3.87;;;16.10;99.90;;;;;;5116143;28;20433;-70
2023/06/01 04:48:51;;;;;;;6.77;4.10;;;16.00;99.90;;;;;;5097782;28;20489;-70
2023/06/01 04:51:20;;;;;;;5.50;4.20;;;16.10;99.90;;;;;;5116243;28;20463;-70
2023/06/01 04:53:51;;;;;;;6.07;4.27;;;16.10;99.90;;;;;;5116052;28;20449;-71
2023/06/01 04:56:24;;;;;;;4.40;3.93;;;16.20;99.90;;;;;;5115640;28;20975;-70
2023/06/01 04:58:51;;;;;;;4.57;3.63;;;16.30;99.90;;;;;;5115717;28;20455;-70
2023/06/01 05:01:17;;;;;;;5.33;3.67;;;16.40;99.90;;;;;;5115575;28;20434;-70
2023/06/01 05:03:44;;;;;;;4.37;3.90;;;16.60;99.90;;;;;;5115925;28;20899;-71
2023/06/01 05:06:13;;;;;;;5.83;4.50;;;16.60;99.90;;;;;;5115338;28;20453;-70
2023/06/01 05:08:39;;;;;;;5.90;3.90;;;16.70;99.90;;;;;;5115495;28;20419;-70
2023/06/01 05:11:06;;;;;;;4.43;4.03;;;16.80;99.90;;;;;;5114873;28;20420;-70
2023/06/01 05:13:33;;;;;;;4.80;3.47;;;16.90;99.90;;;;;;5115288;28;20531;-70
2023/06/01 05:15:59;;;;;;;6.53;4.00;;;16.90;99.90;;;;;;5128074;22;20497;-72
2023/06/01 05:18:24;;;;;;;4.23;3.63;;;17.00;99.90;;;;;;5115218;28;20394;-74
2023/06/01 05:20:50;;;;;;;5.47;3.93;;;17.20;99.90;;;;;;5115390;28;20283;-73
2023/06/01 05:23:15;;;;;;;4.97;3.10;;;17.30;99.90;;;;;;5115139;28;20157;-74
2023/06/01 05:25:41;;;;;;;4.73;3.50;;;17.50;99.90;;;;;;5114629;28;20181;-73
2023/06/01 05:28:06;;;;;;;3.83;3.53;;;17.60;99.90;;;;;;5115068;28;20240;-73
2023/06/01 05:30:32;;;;;;;4.53;3.53;;;17.60;99.90;;;;;;5115608;28;20165;-73
2023/06/01 05:32:57;;;;;;;5.80;3.93;;;17.60;99.90;;;;;;5114891;28;20672;-73
2023/06/01 05:35:23;;;;;;;8.80;3.97;;;17.80;99.90;;;;;;5114873;28;20562;-73
2023/06/01 05:37:49;;;;;;;3.73;3.33;;;17.90;99.90;;;;;;5114775;28;20161;-72
2023/06/01 05:40:15;;;;;;;4.97;3.60;;;18.00;99.90;;;;;;5114869;28;20256;-73
2023/06/01 05:42:41;;;;;;;4.07;3.67;;;18.10;99.90;;;;;;5114923;28;20419;-72
2023/06/01 05:45:07;;;;;;;6.93;3.67;;;18.30;99.90;;;;;;5115149;28;20531;-72
2023/06/01 05:47:32;;;;;;;3.83;3.07;;;18.50;99.90;;;;;;5114177;28;20157;-73
2023/06/01 05:49:58;;;;;;;4.53;3.10;;;18.60;99.90;;;;;;5114569;28;20402;-73
2023/06/01 05:52:23;;;;;;;7.33;4.37;;;18.70;97.90;;;;;;5114728;28;20180;-72
2023/06/01 05:54:50;;;;;;;6.10;4.13;;;18.80;98.30;;;;;;5114404;28;20662;-73
2023/06/01 05:57:16;;;;;;;5.43;3.23;;;18.90;97.70;;;;;;5113664;28;20282;-72
2023/06/01 05:59:42;;;;;;;9.83;4.50;;;18.90;97.10;;;;;;5114420;28;20633;-73
2023/06/01 06:02:07;;;;;;;8.60;4.03;;;19.10;96.70;;;;;;5114189;28;20165;-72
2023/06/01 06:04:33;;;;;;;6.40;3.83;;;19.10;96.20;;;;;;5114153;28;20402;-72
2023/06/01 06:06:59;;;;;;;9.30;4.00;;;19.20;96.30;;;;;;5114246;28;20300;-72
2023/06/01 06:09:25;;;;;;;7.17;4.47;;;19.20;95.80;;;;;;5114513;28;20171;-72
2023/06/01 06:11:51;;;;;;;6.50;3.83;;;19.20;95.40;;;;;;5113847;28;20185;-72
2023/06/01 06:14:16;;;;;;;6.50;3.87;;;19.40;95.70;;;;;;5114046;28;20407;-73
2023/06/01 06:16:42;;;;;;;9.80;3.93;;;19.50;95.80;;;;;;5114063;28;20208;-72
2023/06/01 06:19:08;;;;;;;6.70;4.27;;;19.60;95.00;;;;;;5114122;28;20188;-73
2023/06/01 06:21:33;;;;;;;7.33;4.07;;;19.60;94.90;;;;;;5113794;28;20196;-72
2023/06/01 06:23:59;;;;;;;6.50;3.93;;;19.60;94.50;;;;;;5114094;28;20184;-72
2023/06/01 06:26:27;;;;;;;5.00;3.57;;;19.30;94.60;;;;;;5113532;28;20419;-73
2023/06/01 06:28:53;;;;;;;5.83;3.90;;;19.00;94.50;;;;;;5113563;28;20199;-72
2023/06/01 06:31:19;;;;;;;12.03;4.30;;;19.00;95.40;;;;;;5114178;28;20889;-73
2023/06/01 06:33:45;;;;;;;5.50;3.70;;;18.80;94.90;;;;;;5111723;28;20252;-72
2023/06/01 06:36:11;;;;;;;6.00;3.43;;;18.90;94.50;;;;;;5112714;28;20568;-73
2023/06/01 06:38:36;;;;;;;5.83;5.13;;;18.70;94.30;;;;;;5113777;28;20173;-72
2023/06/01 06:41:02;;;;;;;6.77;4.43;;;18.70;94.40;;;;;;5113313;28;20196;-72
2023/06/01 06:43:27;;;;;;;8.30;3.90;;;18.70;94.80;;;;;;5114147;28;20172;-72
2023/06/01 06:45:53;;;;;;;6.67;4.10;;;18.90;94.60;;;;;;5113505;28;20189;-72
2023/06/01 06:48:18;;;;;;;4.27;3.87;;;19.10;95.20;;;;;;5113867;28;20251;-72
2023/06/01 06:50:44;;;;;;;8.27;4.00;;;19.10;94.50;;;;;;5113341;28;20172;-73
2023/06/01 06:53:11;;;;;;;8.77;4.60;;;19.10;94.30;;;;;;5113438;28;20241;-74
2023/06/01 06:55:37;;;;;;;8.17;5.17;;;19.20;94.40;;;;;;5113645;28;20369;-73
2023/06/01 06:58:02;;;;;;;5.60;4.33;;;19.00;94.40;;;;;;5112526;28;20843;-73
2023/06/01 07:00:28;;;;;;;5.87;4.13;;;19.30;94.30;;;;;;5113119;28;20185;-73
2023/06/01 07:02:55;;;;;;;5.60;4.07;;;19.50;93.80;;;;;;5113534;28;20191;-74
2023/06/01 07:05:20;;;;;;;6.03;5.13;;;19.50;93.60;;;;;;5093614;28;20196;-73
2023/06/01 07:07:46;;;;;;;8.47;4.87;;;19.70;94.00;;;;;;5113728;28;20395;-73
2023/06/01 07:10:12;;;;;;;5.50;4.30;;;19.70;93.50;;;;;;5113618;28;20661;-74
2023/06/01 07:12:38;;;;;;;6.80;4.90;;;19.90;93.40;;;;;;5113414;28;20168;-74
2023/06/01 07:15:05;;;;;;;6.20;4.40;;;20.00;93.10;;;;;;5113764;28;20444;-73
2023/06/01 07:17:30;;;;;;;9.47;4.20;;;20.10;93.50;;;;;;5113730;28;20169;-73
2023/06/01 07:19:58;;;;;;;5.93;4.73;;;20.20;92.10;;;;;;5113709;28;20442;-74
2023/06/01 07:22:23;;;;;;;6.40;4.47;;;20.30;92.60;;;;;;5113433;28;20160;-73
2023/06/01 07:24:49;;;;;;;9.03;4.43;;;20.20;92.30;;;;;;5113280;28;20940;-73
2023/06/01 07:27:14;;;;;;;6.17;4.10;;;20.20;92.50;;;;;;5095140;28;20629;-74
2023/06/01 07:29:41;;;;;;;6.87;3.93;;;20.50;92.20;;;;;;5113736;28;20200;-73
2023/06/01 07:32:06;;;;;;;5.60;4.33;;;20.30;91.90;;;;;;5113563;28;20247;-74
2023/06/01 07:34:35;;;;;;;6.23;4.40;;;20.30;92.20;;;;;;5113120;28;20842;-73
2023/06/01 07:37:01;;;;;;;8.17;5.10;;;20.30;92.50;;;;;;5113409;28;20185;-74
2023/06/01 07:39:26;;;;;;;7.90;4.83;;;20.50;92.10;;;;;;5113434;28;20406;-73
2023/06/01 07:41:53;;;;;;;10.20;6.23;;;20.30;92.30;;;;;;5113033;28;20172;-71
2023/06/01 07:44:20;;;;;;;7.00;5.10;;;20.40;92.10;;;;;;5113210;28;20182;-72
2023/06/01 07:46:46;;;;;;;7.70;5.40;;;20.70;91.90;;;;;;5113465;28;20478;-73
2023/06/01 07:49:15;;;;;;;14.60;5.53;;;21.00;91.80;;;;;;5094771;28;20916;-73
2023/06/01 07:51:42;;;;;;;5.23;4.20;;;21.20;91.10;;;;;;5112905;28;20445;-74
2023/06/01 07:54:08;;;;;;;7.50;5.10;;;21.50;91.40;;;;;;5113617;28;20441;-75
2023/06/01 07:56:34;;;;;;;8.03;4.90;;;21.30;91.00;;;;;;5113033;28;20452;-75
2023/06/01 07:58:59;;;;;;;9.57;4.93;;;20.90;91.20;;;;;;5113845;28;20180;-71
2023/06/01 08:01:25;;;;;;;7.55;5.10;;;20.90;90.60;;;;;;5093606;28;20415;-72
2023/06/01 08:03:51;;;;;;;8.20;4.73;;;21.30;90.80;;;;;;5113227;28;20160;-74
2023/06/01 08:06:17;;;;;;;9.20;4.83;;;21.40;90.40;;;;;;5112927;28;20193;-73
2023/06/01 08:08:43;;;;;;;10.33;5.27;;;21.40;89.70;;;;;;5113563;28;20165;-74
2023/06/01 08:11:09;;;;;;;7.77;4.47;;;21.50;89.70;;;;;;5116562;28;20294;-75
2023/06/01 08:13:36;;;;;;;6.07;4.57;;;21.60;89.40;;;;;;5117380;28;20410;-76
2023/06/01 08:16:02;;;;;;;8.20;5.13;;;21.40;89.00;;;;;;5116383;28;20541;-72
2023/06/01 08:18:28;;;;;;;7.43;4.93;;;21.40;89.30;;;;;;5116763;28;20410;-72
2023/06/01 08:20:55;;;;;;;9.87;5.57;;;21.50;89.10;;;;;;5116229;28;20542;-74
2023/06/01 08:23:22;;;;;;;7.30;5.90;;;21.50;88.30;;;;;;5116499;28;20403;-74
2023/06/01 08:25:48;;;;;;;8.70;5.90;;;21.60;88.60;;;;;;5116836;28;20424;-74
2023/06/01 08:28:14;;;;;;;6.70;5.50;;;21.80;87.40;;;;;;5116311;28;20405;-74
2023/06/01 08:30:39;;;;;;;7.30;4.93;;;21.90;86.80;;;;;;5116058;28;20999;-73
2023/06/01 08:33:05;;;;;;;8.33;5.30;;;22.20;87.80;;;;;;5117008;28;20256;-73
2023/06/01 08:35:33;;;;;;;5.03;4.53;;;22.30;87.00;;;;;;5116418;28;20192;-72
2023/06/01 08:38:00;;;;;;;5.97;5.03;;;22.30;86.30;;;;;;5116560;28;20168;-71
2023/06/01 08:40:25;;;;;;;7.97;5.13;;;22.30;85.70;;;;;;5116282;28;20449;-73
2023/06/01 08:43:03;;;;;;;6.80;4.93;;;22.10;85.60;;;;;;5097943;28;20415;-73
2023/06/01 08:45:29;;;;;;;7.20;5.83;;;22.10;86.40;;;;;;5115923;28;20180;-75
2023/06/01 08:47:57;;;;;;;6.93;5.47;;;22.30;86.20;;;;;;5096651;28;20754;-72
2023/06/01 08:50:26;;;;;;;6.87;5.30;;;22.50;85.40;;;;;;5115606;28;20218;-75
2023/06/01 08:52:55;;;;;;;7.33;5.87;;;22.50;86.60;;;;;;5116327;28;20399;-74
2023/06/01 08:55:21;;;;;;;8.40;4.67;;;22.60;85.20;;;;;;5116058;28;20568;-75
2023/06/01 08:57:47;;;;;;;7.63;5.73;;;22.50;84.30;;;;;;5115796;28;20438;-74
2023/06/01 09:00:13;;;;;;;9.30;5.53;;;22.60;85.50;;;;;;5115634;28;20192;-74
2023/06/01 09:02:39;;;;;;;7.47;4.90;;;22.40;84.30;;;;;;5115837;28;20568;-74
2023/06/01 09:05:05;;;;;;;7.50;5.67;;;22.30;85.50;;;;;;5115802;28;20426;-74
2023/06/01 09:07:31;;;;;;;5.70;5.10;;;22.70;86.60;;;;;;5115980;28;20479;-74
2023/06/01 09:09:57;;;;;;;5.67;5.17;;;23.10;85.80;;;;;;5115680;28;20453;-74
2023/06/01 09:12:32;;;;;;;8.03;5.20;;;23.30;83.60;;;;;;5115770;28;20165;-74
2023/06/01 09:15:12;;;;;;;7.57;5.93;;;23.40;83.10;;;;;;5098679;28;20188;-73
2023/06/01 09:17:40;;;;;;;6.40;5.10;;;23.40;81.70;;;;;;5115415;28;20414;-73
2023/06/01 09:20:06;;;;;;;10.87;5.47;;;23.50;82.30;;;;;;5115370;28;20188;-74
2023/06/01 09:22:43;;;;;;;8.20;5.80;;;23.40;82.00;;;;;;5113803;28;20483;-74
2023/06/01 09:25:09;;;;;;;9.67;6.30;;;23.40;81.50;;;;;;5115902;28;20597;-75
2023/06/01 09:27:49;;;;;;;9.00;5.77;;;23.10;82.40;;;;;;5115516;28;20406;-74
2023/06/01 09:30:16;;;;;;;9.37;5.57;;;22.90;82.60;;;;;;5115433;28;20402;-75
2023/06/01 09:32:44;;;;;;;6.60;5.60;;;23.00;82.70;;;;;;5115239;28;20437;-75
2023/06/01 09:35:10;;;;;;;6.03;5.20;;;23.20;83.10;;;;;;5096651;28;20430;-75
2023/06/01 09:37:37;;;;;;;9.83;5.03;;;23.50;83.20;;;;;;5114934;28;20407;-74
2023/06/01 09:40:17;;;;;;;6.40;5.07;;;23.80;81.00;;;;;;5115018;28;20200;-74
2023/06/01 09:42:43;;;;;;;7.27;5.57;;;23.70;81.60;;;;;;5115359;28;20872;-74
2023/06/01 09:45:18;;;;;;;5.77;4.90;;;24.00;80.80;;;;;;5115225;28;20414;-76
2023/06/01 09:47:44;;;;;;;7.27;5.53;;;24.10;80.50;;;;;;5096867;28;20169;-74
2023/06/01 09:50:11;;;;;;;7.60;5.40;;;23.90;81.80;;;;;;5114659;28;20399;-76
2023/06/01 09:52:37;;;;;;;7.83;5.83;;;23.80;80.40;;;;;;5114799;28;20402;-77
2023/06/01 09:55:08;;;;;;;7.27;6.00;;;24.20;82.40;;;;;;5114956;28;20429;-75
2023/06/01 09:57:33;;;;;;;6.60;5.30;;;24.50;81.40;;;;;;5115001;28;20403;-76
2023/06/01 10:00:03;;;;;;;6.13;5.47;;;24.40;80.60;;;;;;5115126;28;20546;-76
2023/06/01 10:02:31;;;;;;;6.90;5.13;;;24.40;79.90;;;;;;5115264;28;20252;-76
2023/06/01 10:04:58;;;;;;;6.70;5.40;;;24.20;79.60;;;;;;5114880;28;20433;-77
2023/06/01 10:07:27;;;;;;;9.37;5.23;;;24.20;80.80;;;;;;5096662;28;20410;-74
2023/06/01 10:09:58;;;;;;;7.10;5.40;;;24.30;80.90;;;;;;5114615;28;20908;-75
2023/06/01 10:12:28;;;;;;;6.80;5.83;;;24.80;81.30;;;;;;5114542;28;20471;-76
2023/06/01 10:14:55;;;;;;;10.13;6.40;;;25.00;78.90;;;;;;5114564;28;20830;-74
2023/06/01 10:17:21;;;;;;;8.60;6.23;;;25.20;77.40;;;;;;5114677;28;20401;-74
2023/06/01 10:19:47;;;;;;;6.13;5.13;;;24.90;77.60;;;;;;5114413;28;20434;-73
2023/06/01 10:22:13;;;;;;;6.70;6.10;;;25.00;77.10;;;;;;5114363;28;20434;-75
2023/06/01 10:24:41;;;;;;;7.47;5.53;;;25.20;77.10;;;;;;5114354;28;20483;-73
2023/06/01 10:27:22;;;;;;;6.43;5.33;;;25.30;76.50;;;;;;5113841;28;20412;-74
2023/06/01 10:29:48;;;;;;;6.50;5.33;;;25.50;75.60;;;;;;5114844;28;20375;-74
2023/06/01 10:32:41;;;;;;;8.73;5.50;;;25.80;75.40;;;;;;5114457;28;20455;-74
2023/06/01 10:35:07;;;;;;;6.10;5.40;;;26.00;73.70;;;;;;5097323;28;20422;-74
2023/06/01 10:37:34;;;;;;;9.10;5.70;;;26.00;68.90;;;;;;5116440;28;20495;-74
2023/06/01 10:40:17;;;;;;;5.97;5.37;;;26.10;69.00;;;;;;5104028;28;20799;-74
2023/06/01 10:42:43;;;;;;;6.10;5.50;;;25.70;70.50;;;;;;5117251;28;20498;-74
2023/06/01 10:45:34;;;;;;;5.83;5.10;;;25.60;70.20;;;;;;5116209;28;20454;-73
2023/06/01 10:48:01;;;;;;;7.50;5.33;;;25.70;72.90;;;;;;5116362;28;20536;-74
2023/06/01 10:50:27;;;;;;;6.40;4.93;;;26.00;71.80;;;;;;5114021;28;20404;-74
2023/06/01 10:52:54;;;;;;;6.50;5.80;;;26.00;68.90;;;;;;5113876;28;20395;-74
2023/06/01 10:55:25;;;;;;;9.77;6.07;;;26.10;68.40;;;;;;5113901;28;20216;-74
2023/06/01 10:57:52;;;;;;;7.10;6.03;;;25.80;70.00;;;;;;5096726;28;20475;-74
2023/06/01 11:00:27;;;;;;;5.30;4.87;;;26.00;70.90;;;;;;5114452;28;20473;-74
2023/06/01 11:03:03;;;;;;;6.73;5.60;;;26.00;70.00;;;;;;5113714;28;20434;-73
2023/06/01 11:05:47;;;;;;;9.83;5.80;;;26.10;68.90;;;;;;5113870;28;20477;-73
2023/06/01 11:08:19;;;;;;;10.73;5.07;;;26.10;69.40;;;;;;5113752;28;20394;-73
2023/06/01 11:10:54;;;;;;;7.27;5.20;;;26.30;69.20;;;;;;5113885;28;20382;-73
2023/06/01 11:13:31;;;;;;;7.63;5.80;;;26.40;69.10;;;;;;5095185;28;20947;-73
2023/06/01 11:16:20;;;;;;;5.33;4.83;;;26.60;67.70;;;;;;5134254;22;20870;-73
2023/06/01 11:19:02;;;;;;;4.80;4.30;;;26.30;67.90;;;;;;5095276;28;20407;-73
2023/06/01 11:21:42;;;;;;;6.17;5.60;;;26.50;67.80;;;;;;5113215;28;20525;-73
2023/06/01 11:24:13;;;;;;;7.37;6.10;;;26.50;68.70;;;;;;5095389;28;20421;-73
2023/06/01 11:26:44;;;;;;;5.53;4.93;;;27.00;67.80;;;;;;5094978;28;20505;-72
2023/06/01 11:29:18;;;;;;;5.30;4.80;;;28.50;63.30;;;;;;5113848;28;20481;-73
2023/06/01 11:31:48;;;;;;;7.40;5.20;;;29.50;59.70;;;;;;5113969;28;20874;-72
2023/06/01 11:34:16;;;;;;;6.20;5.23;;;30.30;57.60;;;;;;5113401;28;20402;-75
2023/06/01 11:36:44;;;;;;;6.97;4.80;;;31.00;56.20;;;;;;5113035;28;20434;-74
2023/06/01 11:39:19;;;;;;;6.87;4.77;;;31.70;52.90;;;;;;5094989;28;20478;-74
2023/06/01 11:41:45;;;;;;;8.10;5.43;;;33.20;49.90;;;;;;5074437;28;21085;-73
2023/06/01 11:44:10;;;;;;;4.40;3.90;;;32.50;48.60;;;;;;5094224;28;20526;-73
2023/06/01 11:46:36;;;;;;;15.17;4.80;;;33.80;49.10;;;;;;5097355;28;20788;-73
2023/06/01 11:49:06;;;;;;;7.47;4.70;;;34.10;45.60;;;;;;5098689;28;20677;-75
2023/06/01 11:51:33;;;;;;;6.00;5.07;;;33.30;45.70;;;;;;5099037;28;20176;-77
2023/06/01 11:54:03;;;;;;;5.80;5.30;;;33.00;47.00;;;;;;5096871;28;20852;-76
2023/06/01 11:56:30;;;;;;;6.90;4.73;;;32.50;48.80;;;;;;5117279;28;21031;-74
2023/06/01 11:59:08;;;;;;;6.43;5.80;;;33.00;49.50;;;;;;5117182;28;20439;-73
2023/06/01 12:01:36;;;;;;;6.23;5.00;;;31.10;49.20;;;;;;5117615;28;20815;-73
2023/06/01 12:04:04;;;;;;;5.47;4.97;;;30.20;51.20;;;;;;5118363;28;20406;-74
2023/06/01 12:06:30;;;;;;;5.40;4.90;;;31.00;50.80;;;;;;5116822;28;20452;-77
2023/06/01 12:08:56;;;;;;;7.67;4.80;;;31.20;49.10;;;;;;5098970;28;20410;-77
2023/06/01 12:11:27;;;;;;;8.73;5.30;;;31.70;48.50;;;;;;5098776;28;20406;-77
2023/06/01 12:13:56;;;;;;;5.30;4.70;;;32.00;48.00;;;;;;5116979;28;20561;-76
2023/06/01 12:16:22;;;;;;;7.10;5.17;;;32.40;47.00;;;;;;5098838;28;20498;-76
2023/06/01 12:18:48;;;;;;;7.20;4.77;;;32.60;45.70;;;;;;5098961;28;20410;-72
2023/06/01 12:21:16;;;;;;;6.23;4.60;;;32.80;45.40;;;;;;5117257;28;20453;-74
2023/06/01 12:23:42;;;;;;;6.43;4.40;;;31.90;45.80;;;;;;5098755;28;20414;-73
2023/06/01 12:26:08;;;;;;;5.50;5.00;;;32.40;45.40;;;;;;5117319;28;20767;-75
2023/06/01 12:28:53;;;;;;;7.40;4.90;;;32.80;44.90;;;;;;5098463;28;20169;-74
2023/06/01 12:31:19;;;;;;;5.27;4.80;;;33.30;44.10;;;;;;5117070;28;20489;-74
2023/06/01 12:33:46;;;;;;;5.20;4.40;;;34.40;42.30;;;;;;5116475;28;20402;-72
2023/06/01 12:36:31;;;;;;;4.73;4.20;;;34.00;43.70;;;;;;5114125;28;20997;-72
2023/06/01 12:38:58;;;;;;;6.80;4.80;;;33.70;43.60;;;;;;5116989;28;20379;-73
2023/06/01 12:41:24;;;;;;;4.90;3.90;;;34.50;43.10;;;;;;5098014;28;20442;-73
2023/06/01 12:43:50;;;;;;;5.03;4.53;;;36.20;41.60;;;;;;5116143;28;20456;-74
2023/06/01 12:46:26;;;;;;;6.60;4.60;;;37.00;40.60;;;;;;5116453;28;20181;-71
2023/06/01 12:49:13;;;;;;;6.03;5.10;;;38.10;38.30;;;;;;5116320;28;20421;-73